createdAt,value
2022-09-06T00:00:29.268Z,1.80
2022-09-06T00:03:34.576Z,1.80
2022-09-06T00:06:40.924Z,1.90
2022-09-06T00:09:47.599Z,2.60
2022-09-06T00:12:52.890Z,2.20
2022-09-06T00:15:58.399Z,2.13
2022-09-06T00:19:03.640Z,2.53
2022-09-06T00:22:09.547Z,2.10
2022-09-06T00:25:16.331Z,2.10
2022-09-06T00:28:21.761Z,1.95
2022-09-06T00:31:28.883Z,2.70
2022-09-06T00:34:34.418Z,1.90
2022-09-06T00:37:39.779Z,1.90
2022-09-06T00:40:46.342Z,2.35
2022-09-06T00:43:51.781Z,2.10
2022-09-06T00:46:57.247Z,2.38
2022-09-06T00:50:03.135Z,2.15
2022-09-06T00:53:14.275Z,1.88
2022-09-06T00:56:20.918Z,4.10
2022-09-06T00:59:28.311Z,2.42
2022-09-06T01:02:33.613Z,2.22
2022-09-06T01:05:51.567Z,3.58
2022-09-06T01:09:05.917Z,3.65
2022-09-06T01:12:27.983Z,2.63
2022-09-06T01:15:42.777Z,3.53
2022-09-06T01:19:06.555Z,2.60
2022-09-06T01:22:38.382Z,3.05
2022-09-06T01:25:59.986Z,3.25
2022-09-06T01:29:08.731Z,2.72
2022-09-06T01:32:22.151Z,3.00
2022-09-06T01:35:34.003Z,2.50
2022-09-06T01:38:39.411Z,2.97
2022-09-06T01:41:44.641Z,2.67
2022-09-06T01:44:54.913Z,2.38
2022-09-06T01:48:10.550Z,2.58
2022-09-06T01:51:24.107Z,2.38
2022-09-06T01:54:42.701Z,2.75
2022-09-06T01:58:00.204Z,2.15
2022-09-06T02:01:13.011Z,2.00
2022-09-06T02:04:22.480Z,2.22
2022-09-06T02:07:31.110Z,1.88
2022-09-06T02:10:41.507Z,1.88
2022-09-06T02:13:50.117Z,1.90
2022-09-06T02:16:58.130Z,1.67
2022-09-06T02:20:09.508Z,1.90
2022-09-06T02:23:17.106Z,2.22
2022-09-06T02:26:26.455Z,2.10
2022-09-06T02:29:31.993Z,2.30
2022-09-06T02:32:43.495Z,2.00
2022-09-06T02:35:50.371Z,2.08
2022-09-06T02:38:56.478Z,1.70
2022-09-06T02:42:02.441Z,1.73
2022-09-06T02:45:08.958Z,1.73
2022-09-06T02:48:19.218Z,1.65
2022-09-06T02:51:24.698Z,1.55
2022-09-06T02:54:31.153Z,1.55
2022-09-06T02:57:36.673Z,1.70
2022-09-06T03:00:42.165Z,1.50
2022-09-06T03:03:49.125Z,1.70
2022-09-06T03:06:54.370Z,1.50
2022-09-06T03:10:00.282Z,1.35
2022-09-06T03:13:05.686Z,1.33
2022-09-06T03:16:12.899Z,1.38
2022-09-06T03:19:20.206Z,1.30
2022-09-06T03:22:25.495Z,1.30
2022-09-06T03:25:30.814Z,1.50
2022-09-06T03:28:36.458Z,1.55
2022-09-06T03:31:41.700Z,1.42
2022-09-06T03:34:48.282Z,1.52
2022-09-06T03:37:53.578Z,1.40
2022-09-06T03:40:59.253Z,1.45
2022-09-06T03:44:04.780Z,1.45
2022-09-06T03:47:10.069Z,1.42
2022-09-06T03:50:17.142Z,1.35
2022-09-06T03:53:24.529Z,1.40
2022-09-06T03:56:30.067Z,1.48
2022-09-06T03:59:35.586Z,1.40
2022-09-06T04:02:40.815Z,1.35
2022-09-06T04:05:48.389Z,1.30
2022-09-06T04:08:53.732Z,1.50
2022-09-06T04:11:59.030Z,1.23
2022-09-06T04:15:04.626Z,1.35
2022-09-06T04:18:12.428Z,1.70
2022-09-06T04:21:19.138Z,1.50
2022-09-06T04:24:24.415Z,1.15
2022-09-06T04:27:29.798Z,1.45
2022-09-06T04:30:35.190Z,1.50
2022-09-06T04:33:40.934Z,1.50
2022-09-06T04:36:48.556Z,1.40
2022-09-06T04:39:54.335Z,1.48
2022-09-06T04:42:59.966Z,1.30
2022-09-06T04:46:07.209Z,1.55
2022-09-06T04:49:12.503Z,1.33
2022-09-06T04:52:19.240Z,1.73
2022-09-06T04:55:26.439Z,1.50
2022-09-06T04:58:31.982Z,1.45
2022-09-06T05:01:37.320Z,1.60
2022-09-06T05:04:42.621Z,1.40
2022-09-06T05:07:49.661Z,1.58
2022-09-06T05:11:12.142Z,1.48
2022-09-06T05:14:17.413Z,1.65
2022-09-06T05:17:22.650Z,1.55
2022-09-06T05:20:28.131Z,1.70
2022-09-06T05:23:34.863Z,1.58
2022-09-06T05:26:40.142Z,1.70
2022-09-06T05:29:45.388Z,1.60
2022-09-06T05:32:51.835Z,1.67
2022-09-06T05:35:57.135Z,1.70
2022-09-06T05:39:03.938Z,1.85
2022-09-06T05:42:09.324Z,1.80
2022-09-06T05:45:14.868Z,1.95
2022-09-06T05:48:20.321Z,2.10
2022-09-06T05:51:25.626Z,1.65
2022-09-06T05:54:32.202Z,1.80
2022-09-06T05:57:37.659Z,1.60
2022-09-06T06:00:42.918Z,1.63
2022-09-06T06:03:53.730Z,1.70
2022-09-06T06:06:59.009Z,1.60
2022-09-06T06:10:08.050Z,1.80
2022-09-06T06:13:15.339Z,1.60
2022-09-06T06:16:23.082Z,1.60
2022-09-06T06:19:28.841Z,1.73
2022-09-06T06:22:34.167Z,2.17
2022-09-06T06:25:40.853Z,1.70
2022-09-06T06:28:46.574Z,1.60
2022-09-06T06:31:52.189Z,1.75
2022-09-06T06:34:59.039Z,1.35
2022-09-06T06:38:04.239Z,1.40
2022-09-06T06:41:12.903Z,1.30
2022-09-06T06:44:18.166Z,1.30
2022-09-06T06:47:23.589Z,1.20
2022-09-06T06:50:28.853Z,1.40
2022-09-06T06:53:35.323Z,1.23
2022-09-06T06:56:42.322Z,1.38
2022-09-06T06:59:47.827Z,1.33
2022-09-06T07:02:55.846Z,1.38
2022-09-06T07:06:17.188Z,1.40
2022-09-06T07:09:23.429Z,1.20
2022-09-06T07:12:30.764Z,1.33
2022-09-06T07:15:36.132Z,1.70
2022-09-06T07:18:42.979Z,1.45
2022-09-06T07:21:48.233Z,1.20
2022-09-06T07:24:53.776Z,1.27
2022-09-06T07:28:05.733Z,1.20
2022-09-06T07:34:39.659Z,1.10
2022-09-06T07:37:45.117Z,1.13
2022-09-06T07:40:55.190Z,1.17
2022-09-06T07:44:01.739Z,1.08
2022-09-06T07:50:50.174Z,0.90
2022-09-06T07:54:13.340Z,1.02
2022-09-06T07:57:22.299Z,1.30
2022-09-06T08:00:29.265Z,0.93
2022-09-06T08:03:34.837Z,1.00
2022-09-06T08:10:09.752Z,0.90
2022-09-06T08:13:18.139Z,1.10
2022-09-06T08:16:28.017Z,1.20
2022-09-06T08:19:34.442Z,1.00
2022-09-06T08:22:39.948Z,0.93
2022-09-06T08:25:45.131Z,1.13
2022-09-06T08:28:55.917Z,2.10
2022-09-06T08:32:02.698Z,1.10
2022-09-06T08:35:11.090Z,1.13
2022-09-06T08:38:17.298Z,1.02
2022-09-06T08:41:27.630Z,1.10
2022-09-06T08:48:04.349Z,1.25
2022-09-06T08:51:38.611Z,1.52
2022-09-06T08:54:54.173Z,0.90
2022-09-06T08:58:17.086Z,1.20
2022-09-06T09:01:28.883Z,1.10
2022-09-06T09:04:37.322Z,1.00
2022-09-06T09:07:46.262Z,1.10
2022-09-06T09:10:54.661Z,1.02
2022-09-06T09:14:05.466Z,0.90
2022-09-06T09:17:20.406Z,0.90
2022-09-06T09:20:27.514Z,0.80
2022-09-06T09:23:33.110Z,1.00
2022-09-06T09:26:49.482Z,1.10
2022-09-06T09:33:30.924Z,1.30
2022-09-06T09:36:37.750Z,1.10
2022-09-06T09:39:43.226Z,1.08
2022-09-06T09:42:48.614Z,1.30
2022-09-06T09:46:15.798Z,1.10
2022-09-06T09:49:31.042Z,1.30
2022-09-06T09:52:45.503Z,0.95
2022-09-06T09:55:51.636Z,1.10
2022-09-06T09:58:58.839Z,1.33
2022-09-06T10:02:19.914Z,1.10
2022-09-06T10:05:25.436Z,1.40
2022-09-06T10:08:34.982Z,1.05
2022-09-06T10:11:42.769Z,1.00
2022-09-06T10:14:49.867Z,0.90
2022-09-06T10:17:55.415Z,1.25
2022-09-06T10:21:03.483Z,0.90
2022-09-06T10:24:31.960Z,1.15
2022-09-06T10:27:42.535Z,1.17
2022-09-06T10:31:07.840Z,1.02
2022-09-06T10:34:45.499Z,1.00
2022-09-06T10:38:03.982Z,1.23
2022-09-06T10:41:29.571Z,1.00
2022-09-06T10:44:50.351Z,1.45
2022-09-06T10:48:02.984Z,1.10
2022-09-06T10:51:18.702Z,1.10
2022-09-06T10:54:25.284Z,0.95
2022-09-06T11:01:02.925Z,1.27
2022-09-06T11:04:13.375Z,1.00
2022-09-06T11:07:29.565Z,1.38
2022-09-06T11:10:37.753Z,1.10
2022-09-06T11:13:44.771Z,0.90
2022-09-06T11:16:53.196Z,1.10
2022-09-06T11:20:07.106Z,0.90
2022-09-06T11:23:39.079Z,1.10
2022-09-06T11:26:54.079Z,1.20
2022-09-06T11:30:02.621Z,1.30
2022-09-06T11:33:19.058Z,1.27
2022-09-06T11:36:35.678Z,0.82
2022-09-06T11:43:19.974Z,1.00
2022-09-06T11:47:07.547Z,1.20
2022-09-06T11:51:06.613Z,1.20
2022-09-06T11:54:27.486Z,1.00
2022-09-06T11:57:33.150Z,1.05
2022-09-06T12:00:38.383Z,0.85
2022-09-06T12:04:08.232Z,1.08
2022-09-06T12:07:15.098Z,1.05
2022-09-06T12:10:47.561Z,1.02
2022-09-06T12:13:59.487Z,1.10
2022-09-06T12:17:29.322Z,0.95
2022-09-06T12:21:05.158Z,0.93
2022-09-06T12:24:56.199Z,0.90
2022-09-06T12:28:02.990Z,1.05
2022-09-06T12:31:40.008Z,1.00
2022-09-06T12:34:46.354Z,1.00
2022-09-06T12:37:56.077Z,1.10
2022-09-06T12:41:04.068Z,1.10
2022-09-06T12:44:09.927Z,1.08
2022-09-06T12:47:18.699Z,1.17
2022-09-06T12:50:26.052Z,1.70
2022-09-06T12:53:31.938Z,0.82
2022-09-06T12:56:38.786Z,1.10
2022-09-06T12:59:54.799Z,1.23
2022-09-06T13:03:07.215Z,2.10
2022-09-06T13:06:24.545Z,1.10
2022-09-06T13:09:33.560Z,1.17
2022-09-06T13:12:43.352Z,1.13
2022-09-06T13:15:48.757Z,1.10
2022-09-06T13:18:54.598Z,1.20
2022-09-06T13:22:00.908Z,1.00
2022-09-06T13:25:08.143Z,1.20
2022-09-06T13:28:28.424Z,1.10
2022-09-06T13:31:34.157Z,1.10
2022-09-06T13:34:40.854Z,1.02
2022-09-06T13:37:49.498Z,2.00
2022-09-06T13:41:10.954Z,1.30
2022-09-06T13:44:31.162Z,1.40
2022-09-06T13:47:36.559Z,1.10
2022-09-06T13:50:42.498Z,1.20
2022-09-06T13:53:47.873Z,1.25
2022-09-06T13:56:53.244Z,1.10
2022-09-06T14:00:00.265Z,1.40
2022-09-06T14:03:05.717Z,1.05
2022-09-06T14:06:12.594Z,1.20
2022-09-06T14:09:18.219Z,1.10
2022-09-06T14:12:23.674Z,1.40
2022-09-06T14:15:30.654Z,1.30
2022-09-06T14:18:36.288Z,1.20
2022-09-06T14:21:41.638Z,1.23
2022-09-06T14:24:48.797Z,1.20
2022-09-06T14:27:54.300Z,1.10
2022-09-06T14:31:11.688Z,1.02
2022-09-06T14:34:17.487Z,1.30
2022-09-06T14:37:23.054Z,1.10
2022-09-06T14:40:28.469Z,1.17
2022-09-06T14:43:34.070Z,1.10
2022-09-06T14:46:40.758Z,1.10
2022-09-06T14:49:46.283Z,1.20
2022-09-06T14:52:51.519Z,1.45
2022-09-06T14:56:03.939Z,1.70
2022-09-06T14:59:09.857Z,1.20
2022-09-06T15:02:16.642Z,1.33
2022-09-06T15:05:22.002Z,1.30
2022-09-06T15:08:27.293Z,1.00
2022-09-06T15:11:35.441Z,1.10
2022-09-06T15:14:41.157Z,1.30
2022-09-06T15:17:48.084Z,1.38
2022-09-06T15:20:53.244Z,1.60
2022-09-06T15:23:58.966Z,1.30
2022-09-06T15:27:05.421Z,1.48
2022-09-06T15:30:12.113Z,1.30
2022-09-06T15:33:19.733Z,1.25
2022-09-06T15:36:25.059Z,1.50
2022-09-06T15:39:30.387Z,1.30
2022-09-06T15:42:36.131Z,1.35
2022-09-06T15:45:50.123Z,1.38
2022-09-06T15:48:56.822Z,1.23
2022-09-06T15:52:06.038Z,1.20
2022-09-06T15:55:29.983Z,1.40
2022-09-06T15:58:35.560Z,1.42
2022-09-06T16:01:41.075Z,1.15
2022-09-06T16:04:48.986Z,1.20
2022-09-06T16:07:54.250Z,1.50
2022-09-06T16:10:59.578Z,1.90
2022-09-06T16:14:05.958Z,2.25
2022-09-06T16:17:12.395Z,1.80
2022-09-06T16:20:19.214Z,1.55
2022-09-06T16:23:24.737Z,1.90
2022-09-06T16:26:33.251Z,2.08
2022-09-06T16:29:38.990Z,4.07
2022-09-06T16:32:44.303Z,2.70
2022-09-06T16:35:50.928Z,2.20
2022-09-06T16:38:57.694Z,2.28
2022-09-06T16:42:03.342Z,1.40
2022-09-06T16:45:10.273Z,1.65
2022-09-06T16:48:16.184Z,1.85
2022-09-06T16:51:28.355Z,2.75
2022-09-06T16:54:33.868Z,4.85
2022-09-06T16:57:40.515Z,1.90
2022-09-06T17:00:46.675Z,2.28
2022-09-06T17:03:52.280Z,2.10
2022-09-06T17:06:59.062Z,1.80
2022-09-06T17:10:05.151Z,1.67
2022-09-06T17:13:10.771Z,2.30
2022-09-06T17:16:34.308Z,1.85
2022-09-06T17:19:41.747Z,1.65
2022-09-06T17:22:51.348Z,1.70
2022-09-06T17:25:56.606Z,2.17
2022-09-06T17:29:01.940Z,2.20
2022-09-06T17:32:10.304Z,2.47
2022-09-06T17:35:15.942Z,5.63
2022-09-06T17:38:22.738Z,6.07
2022-09-06T17:41:31.154Z,3.50
2022-09-06T17:44:36.809Z,2.60
2022-09-06T17:47:42.026Z,2.30
2022-09-06T17:50:47.685Z,2.78
2022-09-06T17:53:54.846Z,2.35
2022-09-06T17:57:00.358Z,2.55
2022-09-06T18:00:06.985Z,2.53
2022-09-06T18:03:15.179Z,2.50
2022-09-06T18:06:23.774Z,2.40
2022-09-06T18:09:30.797Z,2.67
2022-09-06T18:12:36.051Z,2.10
2022-09-06T18:15:41.850Z,2.30
2022-09-06T18:18:52.151Z,2.25
2022-09-06T18:21:57.773Z,2.47
2022-09-06T18:25:04.597Z,3.00
2022-09-06T18:28:10.313Z,2.63
2022-09-06T18:31:20.693Z,3.08
2022-09-06T18:34:26.190Z,2.97
2022-09-06T18:37:31.543Z,3.92
2022-09-06T18:40:38.366Z,4.05
2022-09-06T18:43:43.737Z,4.07
2022-09-06T18:46:49.205Z,3.92
2022-09-06T18:49:54.523Z,4.07
2022-09-06T18:52:59.688Z,3.88
2022-09-06T18:56:07.497Z,3.60
2022-09-06T18:59:14.722Z,3.65
2022-09-06T19:02:20.627Z,3.78
2022-09-06T19:05:26.229Z,4.20
2022-09-06T19:08:31.695Z,4.97
2022-09-06T19:11:38.876Z,7.78
2022-09-06T19:14:44.323Z,8.80
2022-09-06T19:17:50.491Z,8.85
2022-09-06T19:20:59.285Z,6.43
2022-09-06T19:24:07.774Z,5.65
2022-09-06T19:27:14.369Z,3.85
2022-09-06T19:30:20.387Z,3.90
2022-09-06T19:33:31.087Z,2.20
2022-09-06T19:36:41.042Z,2.28
2022-09-06T19:39:48.714Z,1.98
2022-09-06T19:42:55.613Z,2.08
2022-09-06T19:46:04.167Z,2.00
2022-09-06T19:49:10.450Z,1.60
2022-09-06T19:52:15.716Z,2.00
2022-09-06T19:55:21.499Z,1.80
2022-09-06T19:58:29.367Z,2.30
2022-09-06T20:01:37.441Z,2.08
2022-09-06T20:04:42.752Z,1.70
2022-09-06T20:07:48.023Z,1.80
2022-09-06T20:10:54.477Z,1.55
2022-09-06T20:14:02.038Z,1.30
2022-09-06T20:17:32.347Z,1.70
2022-09-06T20:20:34.487Z,1.77
2022-09-06T20:23:39.846Z,1.60
2022-09-06T20:26:45.423Z,1.63
2022-09-06T20:29:52.020Z,1.70
2022-09-06T20:32:57.308Z,1.60
2022-09-06T20:36:04.358Z,1.80
2022-09-06T20:39:11.050Z,1.50
2022-09-06T20:42:16.422Z,1.80
2022-09-06T20:45:25.322Z,1.90
2022-09-06T20:48:33.341Z,1.58
2022-09-06T20:51:43.325Z,1.88
2022-09-06T20:54:50.075Z,1.60
2022-09-06T20:57:55.399Z,1.85
2022-09-06T21:01:02.431Z,1.67
2022-09-06T21:04:09.650Z,2.08
2022-09-06T21:07:16.323Z,1.70
2022-09-06T21:10:21.539Z,1.63
2022-09-06T21:13:28.346Z,1.88
2022-09-06T21:16:35.556Z,2.10
2022-09-06T21:19:41.443Z,1.80
2022-09-06T21:22:46.782Z,1.88
2022-09-06T21:25:55.613Z,2.17
2022-09-06T21:29:01.394Z,2.33
2022-09-06T21:32:08.428Z,2.60
2022-09-06T21:35:13.644Z,2.35
2022-09-06T21:38:19.198Z,2.60
2022-09-06T21:41:25.511Z,2.35
2022-09-06T21:44:30.798Z,2.63
2022-09-06T21:47:38.291Z,2.60
2022-09-06T21:50:47.744Z,2.30
2022-09-06T21:53:53.830Z,2.55
2022-09-06T21:56:59.053Z,2.42
2022-09-06T22:00:05.906Z,2.25
2022-09-06T22:03:17.570Z,2.35
2022-09-06T22:06:25.921Z,2.47
2022-09-06T22:09:31.157Z,2.30
2022-09-06T22:12:36.454Z,2.30
2022-09-06T22:15:41.901Z,2.50
2022-09-06T22:18:49.956Z,2.10
2022-09-06T22:21:56.790Z,2.30
2022-09-06T22:25:02.119Z,2.20
2022-09-06T22:28:08.139Z,2.30
2022-09-06T22:31:14.835Z,1.80
2022-09-06T22:34:21.657Z,1.88
2022-09-06T22:37:27.167Z,1.80
2022-09-06T22:40:32.655Z,1.88
2022-09-06T22:43:38.704Z,1.98
2022-09-06T22:46:44.032Z,1.83
2022-09-06T22:49:51.719Z,1.77
2022-09-06T22:52:57.947Z,2.20
2022-09-06T22:56:04.458Z,2.00
2022-09-06T22:59:10.001Z,1.83
2022-09-06T23:02:15.180Z,2.25
2022-09-06T23:05:22.876Z,1.90
2022-09-06T23:08:29.027Z,1.83
2022-09-06T23:11:34.358Z,1.75
2022-09-06T23:14:39.562Z,1.60
2022-09-06T23:17:45.255Z,1.50
2022-09-06T23:20:51.902Z,1.70
2022-09-06T23:23:57.951Z,1.50
2022-09-06T23:27:04.834Z,1.60
2022-09-06T23:30:13.612Z,1.40
2022-09-06T23:33:20.726Z,1.60
2022-09-06T23:36:28.428Z,1.65
2022-09-06T23:39:33.695Z,1.50
2022-09-06T23:42:39.192Z,1.40
2022-09-06T23:45:44.888Z,1.50
2022-09-06T23:48:50.519Z,1.50
2022-09-06T23:51:57.179Z,1.50
2022-09-06T23:55:02.486Z,1.48
2022-09-06T23:58:08.879Z,1.58
